»·PEaware :: N973DM KOXR-KPMD

N973DM :: KOXR-KPMD

FLIGHT INFORMATION

Flight Status: Arrived
Operator: Privately registered:
United States
More flights under this callsign
Pilot: Anonymous 1328 (1328)
Aircraft: CIRRUS SR-20
(SR20)
More flights by this aircraft type
Origin: KOXR Oxnard
United States
Destination: KPMD Palmdale AF Plant 42
United States
More flights between these airports :: More routes between these airports
Route: +FIM V386 PMD
File this flight plan on PilotEdge
Remarks: EXPECT IMC ENROUTE TO MINS
Altitude:
(Current/Filed)
7,000ft
Speed:
(Current/Filed)
145kts
Departed: 11-Jan-13 02:31 PM
Arrived: 11-Jan-13 03:17 PM
Distance/Time
Traveled:
61nm/0:46
Distance/Time
To Go:
Arrived

Flight Plot

Page will automatically refresh every two minutes.

Flight plan parsing failed; only flown route is shown


Map Options




Map Legend


Flown Route
Filed Route
Departure Airport
Arrival Airport
Navaid (VOR, NDB)
Fix

Horizontal Profiles

Position Reports

Time Latitude Longitude Heading Altitude Ground
Speed
11-Jan-13 14:06 34.199696 -119.208370 90 45ft 0kts
11-Jan-13 14:07 34.199696 -119.208370 90 45ft 0kts
11-Jan-13 14:08 34.199696 -119.208370 90 45ft 0kts
11-Jan-13 14:09 34.199696 -119.208370 90 45ft 0kts
11-Jan-13 14:10 34.199696 -119.208370 90 45ft 0kts
11-Jan-13 14:11 34.199696 -119.208370 90 45ft 0kts
11-Jan-13 14:12 34.199696 -119.208370 90 45ft 0kts
11-Jan-13 14:13 34.199696 -119.208370 90 45ft 0kts
11-Jan-13 14:14 34.199696 -119.208370 90 45ft 0kts
11-Jan-13 14:15 34.199696 -119.208370 90 45ft 0kts
11-Jan-13 14:16 34.199696 -119.208370 90 45ft 0kts
11-Jan-13 14:17 34.199696 -119.208370 90 45ft 0kts
11-Jan-13 14:18 34.199696 -119.208370 90 45ft 0kts
11-Jan-13 14:19 34.199696 -119.208370 90 45ft 0kts
11-Jan-13 14:20 34.199696 -119.208370 90 45ft 0kts
11-Jan-13 14:21 34.199699 -119.208324 76 45ft 0kts
11-Jan-13 14:22 34.199699 -119.208324 76 45ft 0kts
11-Jan-13 14:23 34.199701 -119.208312 67 45ft 0kts
11-Jan-13 14:24 34.199875 -119.206895 88 45ft 14kts
11-Jan-13 14:25 34.199673 -119.199274 86 45ft 29kts
11-Jan-13 14:26 34.199909 -119.197617 41 45ft 0kts
11-Jan-13 14:27 34.199909 -119.197617 41 45ft 0kts
11-Jan-13 14:28 34.199909 -119.197617 41 45ft 0kts
11-Jan-13 14:29 34.199960 -119.197571 31 45ft 0kts
11-Jan-13 14:30 34.199960 -119.197571 31 45ft 0kts
11-Jan-13 14:31 34.201235 -119.210519 280 258ft 82kts
11-Jan-13 14:32 34.207454 -119.243410 285 1076ft 102kts
11-Jan-13 14:33 34.212339 -119.283331 280 1984ft 109kts
11-Jan-13 14:34 34.216699 -119.322851 275 2941ft 110kts
11-Jan-13 14:35 34.235243 -119.326421 77 3905ft 113kts
11-Jan-13 14:36 34.245795 -119.293992 78 4557ft 114kts
11-Jan-13 14:37 34.253563 -119.254263 67 5262ft 116kts
11-Jan-13 14:38 34.266061 -119.218184 62 5854ft 122kts
11-Jan-13 14:39 34.280726 -119.182615 75 6510ft 115kts
11-Jan-13 14:40 34.289799 -119.144094 75 6991ft 123kts
11-Jan-13 14:41 34.301119 -119.100491 79 7060ft 149kts
11-Jan-13 14:42 34.314833 -119.051274 66 7104ft 151kts
11-Jan-13 14:43 34.330033 -119.002702 69 6952ft 152kts
11-Jan-13 14:44 34.343774 -118.954822 71 6900ft 146kts
11-Jan-13 14:45 34.356179 -118.907682 68 6815ft 151kts
11-Jan-13 14:46 34.370533 -118.861181 78 6797ft 146kts
11-Jan-13 14:47 34.383004 -118.813707 69 6786ft 140kts
11-Jan-13 14:48 34.397047 -118.767528 67 6449ft 159kts
11-Jan-13 14:49 34.410781 -118.722993 69 6848ft 127kts
11-Jan-13 14:50 34.422447 -118.684611 92 7350ft 117kts
11-Jan-13 14:51 34.433377 -118.648352 68 7840ft 114kts
11-Jan-13 14:52 34.447751 -118.605924 66 7337ft 165kts
11-Jan-13 14:53 34.467711 -118.553283 64 6773ft 160kts
11-Jan-13 14:54 34.487864 -118.507035 68 6816ft 152kts
11-Jan-13 14:55 34.498715 -118.457944 81 6814ft 152kts
11-Jan-13 14:56 34.508115 -118.414234 50 7094ft 145kts
11-Jan-13 14:57 34.529652 -118.367742 67 6595ft 166kts
11-Jan-13 14:58 34.545469 -118.319377 72 6898ft 125kts
11-Jan-13 14:59 34.559569 -118.277751 68 6949ft 138kts
11-Jan-13 15:00 34.574857 -118.232412 67 6907ft 146kts
11-Jan-13 15:01 34.590147 -118.187110 65 6918ft 145kts
11-Jan-13 15:02 34.606686 -118.142519 65 6881ft 142kts
11-Jan-13 15:03 34.621717 -118.099060 85 6896ft 128kts
11-Jan-13 15:04 34.628258 -118.055779 72 6374ft 160kts
11-Jan-13 15:05 34.634649 -118.006742 98 6566ft 97kts
11-Jan-13 15:06 34.656665 -117.979040 23 6461ft 114kts
11-Jan-13 15:07 34.694569 -117.959551 19 5723ft 159kts
11-Jan-13 15:08 34.705167 -117.910856 78 5393ft 156kts
11-Jan-13 15:09 34.699152 -117.861794 144 5310ft 111kts
11-Jan-13 15:10 34.657984 -117.859267 196 4408ft 155kts
11-Jan-13 15:11 34.645105 -117.900296 265 4376ft 105kts
11-Jan-13 15:12 34.640078 -117.937306 271 4203ft 99kts
11-Jan-13 15:13 34.640080 -117.968987 260 4272ft 80kts
11-Jan-13 15:14 34.635381 -118.004958 269 3807ft 105kts
11-Jan-13 15:15 34.632945 -118.044308 279 3086ft 125kts
11-Jan-13 15:16 34.632070 -118.084086 268 2578ft 97kts
11-Jan-13 15:17 34.631715 -118.092163 271 2545ft 0kts
11-Jan-13 15:18 34.631715 -118.092163 271 2545ft 0kts
11-Jan-13 15:19 34.631715 -118.092163 271 2545ft 0kts
11-Jan-13 15:20 34.631715 -118.092163 271 2545ft 0kts
11-Jan-13 15:21 34.631715 -118.092163 271 2545ft 0kts
11-Jan-13 15:22 34.631715 -118.092163 271 2545ft 0kts
11-Jan-13 15:23 34.631715 -118.092163 271 2545ft 0kts
11-Jan-13 15:24 34.631715 -118.092163 271 2545ft 0kts
11-Jan-13 15:25 34.631715 -118.092163 271 2545ft 0kts
11-Jan-13 15:26 34.631715 -118.092163 271 2545ft 0kts
11-Jan-13 15:27 34.631715 -118.092163 271 2545ft 0kts
11-Jan-13 15:28 34.631715 -118.092163 271 2545ft 0kts
11-Jan-13 15:29 34.631715 -118.092163 271 2545ft 0kts
11-Jan-13 15:30 34.631715 -118.092163 271 2545ft 0kts
11-Jan-13 15:31 34.631715 -118.092163 271 2545ft 0kts

Navigation Log

Ident Type
Flight plan parsing failed, navigation log unavailable